createdAt,value
2022-08-26T00:02:07.181Z,101324.28
2022-08-26T00:04:35.773Z,101328.69
2022-08-26T00:07:05.661Z,101328.72
2022-08-26T00:09:33.370Z,101329.56
2022-08-26T00:12:06.923Z,101330.44
2022-08-26T00:14:34.247Z,101337.25
2022-08-26T00:17:01.633Z,101330.75
2022-08-26T00:19:28.983Z,101329.72
2022-08-26T00:21:56.350Z,101326.47
2022-08-26T00:24:25.520Z,101331.41
2022-08-26T00:26:53.218Z,101327.03
2022-08-26T00:29:21.439Z,101326.53
2022-08-26T00:31:49.990Z,101324.38
2022-08-26T00:34:19.619Z,101317.91
2022-08-26T00:36:47.835Z,101319.00
2022-08-26T00:39:20.152Z,101315.25
2022-08-26T00:41:50.469Z,101309.28
2022-08-26T00:44:19.564Z,101304.44
2022-08-26T00:46:55.091Z,101307.72
2022-08-26T00:49:35.893Z,101308.81
2022-08-26T00:52:09.835Z,101311.22
2022-08-26T00:54:46.898Z,101301.50
2022-08-26T00:57:20.097Z,101300.69
2022-08-26T00:59:54.931Z,101308.31
2022-08-26T01:02:23.108Z,101304.47
2022-08-26T01:04:55.734Z,101311.00
2022-08-26T01:07:26.216Z,101297.72
2022-08-26T01:09:55.632Z,101303.44
2022-08-26T01:12:27.650Z,101303.72
2022-08-26T01:14:56.142Z,101307.31
2022-08-26T01:17:23.653Z,101312.72
2022-08-26T01:20:00.745Z,101311.09
2022-08-26T01:22:40.830Z,101311.38
2022-08-26T01:25:08.952Z,101315.44
2022-08-26T01:27:36.797Z,101313.28
2022-08-26T01:30:07.385Z,101316.56
2022-08-26T01:32:36.277Z,101314.44
2022-08-26T01:35:08.745Z,101309.06
2022-08-26T01:37:40.310Z,101310.16
2022-08-26T01:40:16.916Z,101311.84
2022-08-26T01:42:46.769Z,101304.06
2022-08-26T01:45:19.838Z,101306.28
2022-08-26T01:47:50.114Z,101302.78
2022-08-26T01:50:30.145Z,101308.22
2022-08-26T01:53:05.934Z,101314.44
2022-08-26T01:55:36.672Z,101314.22
2022-08-26T01:58:13.811Z,101308.00
2022-08-26T02:00:41.299Z,101308.28
2022-08-26T02:03:18.088Z,101305.03
2022-08-26T02:05:48.802Z,101310.44
2022-08-26T02:08:24.762Z,101314.25
2022-08-26T02:10:54.781Z,101313.72
2022-08-26T02:13:26.661Z,101311.25
2022-08-26T02:15:56.108Z,101308.81
2022-08-26T02:18:25.626Z,101309.91
2022-08-26T02:20:55.310Z,101303.94
2022-08-26T02:23:25.298Z,101310.44
2022-08-26T02:26:02.446Z,101309.41
2022-08-26T02:28:37.693Z,101313.75
2022-08-26T02:31:05.525Z,101307.00
2022-08-26T02:33:35.442Z,101309.44
2022-08-26T02:36:04.096Z,101308.91
2022-08-26T02:38:33.231Z,101308.38
2022-08-26T02:41:00.822Z,101303.78
2022-08-26T02:43:31.702Z,101307.31
2022-08-26T02:46:02.333Z,101303.50
2022-08-26T02:48:30.918Z,101299.97
2022-08-26T02:51:00.672Z,101296.72
2022-08-26T02:53:31.877Z,101298.09
2022-08-26T02:56:00.916Z,101284.56
2022-08-26T02:58:28.713Z,101299.75
2022-08-26T03:00:56.059Z,101292.75
2022-08-26T03:03:23.629Z,101292.19
2022-08-26T03:05:51.559Z,101290.84
2022-08-26T03:08:19.306Z,101288.97
2022-08-26T03:10:47.641Z,101282.22
2022-08-26T03:13:18.118Z,101284.69
2022-08-26T03:15:47.556Z,101284.13
2022-08-26T03:18:15.210Z,101284.66
2022-08-26T03:20:42.554Z,101270.06
2022-08-26T03:23:11.446Z,101274.94
2022-08-26T03:25:40.135Z,101269.25
2022-08-26T03:28:07.765Z,101272.25
2022-08-26T03:30:45.459Z,101277.13
2022-08-26T03:33:14.971Z,101266.56
2022-08-26T03:35:45.509Z,101272.28
2022-08-26T03:38:12.868Z,101278.75
2022-08-26T03:40:42.452Z,101274.44
2022-08-26T03:43:14.167Z,101270.63
2022-08-26T03:45:43.592Z,101265.22
2022-08-26T03:48:13.668Z,101264.16
2022-08-26T03:50:42.172Z,101266.84
2022-08-26T03:53:12.862Z,101266.31
2022-08-26T03:55:41.528Z,101264.69
2022-08-26T03:58:08.846Z,101263.88
2022-08-26T04:00:36.674Z,101260.34
2022-08-26T04:03:05.492Z,101265.75
2022-08-26T04:05:38.016Z,101262.81
2022-08-26T04:08:06.219Z,101268.47
2022-08-26T04:10:33.547Z,101267.16
2022-08-26T04:13:00.796Z,101263.09
2022-08-26T04:15:28.659Z,101267.94
2022-08-26T04:17:57.344Z,101261.22
2022-08-26T04:20:26.984Z,101262.81
2022-08-26T04:22:54.350Z,101260.41
2022-08-26T04:25:22.543Z,101253.34
2022-08-26T04:27:51.731Z,101256.59
2022-08-26T04:30:20.075Z,101255.81
2022-08-26T04:32:48.990Z,101257.69
2022-08-26T04:35:16.774Z,101255.53
2022-08-26T04:37:45.678Z,101256.06
2022-08-26T04:40:13.323Z,101258.25
2022-08-26T04:42:40.727Z,101258.78
2022-08-26T04:45:10.382Z,101264.19
2022-08-26T04:47:39.065Z,101263.41
2022-08-26T04:50:08.723Z,101266.38
2022-08-26T04:52:38.537Z,101270.19
2022-08-26T04:55:08.762Z,101269.91
2022-08-26T04:57:36.334Z,101269.66
2022-08-26T05:00:06.542Z,101273.44
2022-08-26T05:02:34.411Z,101269.66
2022-08-26T05:05:01.991Z,101266.66
2022-08-26T05:07:30.239Z,101268.00
2022-08-26T05:09:59.223Z,101276.94
2022-08-26T05:12:28.759Z,101272.34
2022-08-26T05:14:56.419Z,101263.94
2022-08-26T05:17:24.787Z,101270.97
2022-08-26T05:19:52.071Z,101268.00
2022-08-26T05:22:20.239Z,101273.94
2022-08-26T05:24:47.793Z,101269.06
2022-08-26T05:27:15.168Z,101268.53
2022-08-26T05:29:44.354Z,101272.31
2022-08-26T05:32:11.754Z,101274.47
2022-08-26T05:34:39.166Z,101279.34
2022-08-26T05:37:06.735Z,101284.19
2022-08-26T05:39:34.123Z,101280.66
2022-08-26T05:42:02.314Z,101278.75
2022-08-26T05:44:29.607Z,101281.97
2022-08-26T05:47:18.246Z,101276.56
2022-08-26T05:49:51.380Z,101270.59
2022-08-26T05:52:19.059Z,101281.97
2022-08-26T05:54:46.519Z,101284.13
2022-08-26T05:57:17.120Z,101288.44
2022-08-26T05:59:46.741Z,101285.19
2022-08-26T06:02:14.102Z,101280.06
2022-08-26T06:04:43.369Z,101281.94
2022-08-26T06:07:11.550Z,101291.41
2022-08-26T06:09:41.447Z,101284.66
2022-08-26T06:12:09.495Z,101291.66
2022-08-26T06:14:37.027Z,101285.41
2022-08-26T06:17:04.579Z,101287.84
2022-08-26T06:19:33.136Z,101283.72
2022-08-26T06:22:23.691Z,101289.63
2022-08-26T06:25:09.881Z,101287.19
2022-08-26T06:27:37.471Z,101283.34
2022-08-26T06:30:06.459Z,101283.84
2022-08-26T06:32:33.872Z,101284.94
2022-08-26T06:35:01.557Z,101277.31
2022-08-26T06:37:30.660Z,101286.44
2022-08-26T06:39:58.168Z,101285.03
2022-08-26T06:42:25.892Z,101280.91
2022-08-26T06:44:54.256Z,101286.53
2022-08-26T06:47:21.688Z,101284.00
2022-08-26T06:49:50.381Z,101288.31
2022-08-26T06:52:23.079Z,101288.81
2022-08-26T06:54:53.505Z,101294.97
2022-08-26T06:57:20.884Z,101301.66
2022-08-26T06:59:48.776Z,101303.25
2022-08-26T07:02:18.757Z,101308.59
2022-08-26T07:04:47.910Z,101301.50
2022-08-26T07:07:15.970Z,101301.34
2022-08-26T07:09:43.464Z,101300.78
2022-08-26T07:12:12.219Z,101301.00
2022-08-26T07:14:40.702Z,101303.59
2022-08-26T07:17:14.629Z,101303.78
2022-08-26T07:19:43.163Z,101304.75
2022-08-26T07:22:10.965Z,101308.22
2022-08-26T07:24:42.369Z,101298.59
2022-08-26T07:27:33.447Z,101298.22
2022-08-26T07:30:01.089Z,101302.13
2022-08-26T07:32:32.669Z,101293.97
2022-08-26T07:35:00.686Z,101300.28
2022-08-26T07:37:28.422Z,101300.28
2022-08-26T07:40:04.598Z,101299.03
2022-08-26T07:42:34.376Z,101301.44
2022-08-26T07:45:02.182Z,101306.88
2022-08-26T07:47:29.710Z,101304.28
2022-08-26T07:49:59.090Z,101308.31
2022-08-26T07:52:29.888Z,101308.06
2022-08-26T07:55:00.326Z,101317.13
2022-08-26T07:57:29.460Z,101319.09
2022-08-26T07:59:59.595Z,101320.97
2022-08-26T08:02:29.579Z,101330.59
2022-08-26T08:04:58.435Z,101328.69
2022-08-26T08:07:45.136Z,101331.19
2022-08-26T08:10:17.384Z,101331.03
2022-08-26T08:12:44.989Z,101327.00
2022-08-26T08:15:15.415Z,101330.88
2022-08-26T08:17:47.002Z,101329.31
2022-08-26T08:20:18.880Z,101327.06
2022-08-26T08:22:46.811Z,101329.53
2022-08-26T08:25:14.733Z,101329.53
2022-08-26T08:27:48.712Z,101333.00
2022-08-26T08:30:22.874Z,101325.19
2022-08-26T08:32:50.831Z,101325.28
2022-08-26T08:35:22.427Z,101322.13
2022-08-26T08:37:54.841Z,101330.19
2022-08-26T08:40:26.047Z,101325.91
2022-08-26T08:43:01.486Z,101320.19
2022-08-26T08:45:37.235Z,101323.78
2022-08-26T08:48:13.761Z,101324.06
2022-08-26T08:50:46.013Z,101332.44
2022-08-26T08:53:18.737Z,101330.16
2022-08-26T08:56:02.914Z,101336.22
2022-08-26T08:58:51.602Z,101322.16
2022-08-26T09:01:33.593Z,101324.06
2022-08-26T09:04:24.141Z,101320.22
2022-08-26T09:09:37.741Z,101314.78
2022-08-26T09:12:12.858Z,101314.75
2022-08-26T09:14:45.039Z,101318.94
2022-08-26T09:17:31.281Z,101317.22
2022-08-26T09:20:12.160Z,101318.22
2022-08-26T09:22:41.021Z,101316.22
2022-08-26T09:25:14.743Z,101313.38
2022-08-26T09:27:46.396Z,101315.13
2022-08-26T09:30:26.445Z,101315.44
2022-08-26T09:33:10.223Z,101312.69
2022-08-26T09:35:42.945Z,101316.56
2022-08-26T09:38:26.944Z,101306.66
2022-08-26T09:40:59.423Z,101304.53
2022-08-26T09:43:29.016Z,101299.31
2022-08-26T09:46:18.377Z,101290.28
2022-08-26T09:48:47.402Z,101298.28
2022-08-26T09:51:31.590Z,101292.81
2022-08-26T09:54:02.410Z,101294.53
2022-08-26T09:56:32.897Z,101293.41
2022-08-26T09:59:02.234Z,101287.41
2022-08-26T10:01:36.635Z,101296.41
2022-08-26T10:04:12.286Z,101289.47
2022-08-26T10:06:55.545Z,101302.78
2022-08-26T10:09:25.708Z,101291.03
2022-08-26T10:11:58.712Z,101285.56
2022-08-26T10:14:33.472Z,101292.31
2022-08-26T10:17:09.224Z,101297.94
2022-08-26T10:19:56.509Z,101291.78
2022-08-26T10:22:35.264Z,101283.97
2022-08-26T10:25:11.932Z,101281.63
2022-08-26T10:27:51.331Z,101283.03
2022-08-26T10:30:33.727Z,101285.69
2022-08-26T10:33:06.531Z,101285.31
2022-08-26T10:35:44.844Z,101281.91
2022-08-26T10:38:18.549Z,101278.22
2022-08-26T10:40:56.174Z,101276.16
2022-08-26T10:43:29.744Z,101282.41
2022-08-26T10:46:04.871Z,101272.09
2022-08-26T10:48:46.381Z,101276.97
2022-08-26T10:51:20.799Z,101274.13
2022-08-26T10:53:58.945Z,101270.53
2022-08-26T10:56:49.401Z,101274.66
2022-08-26T10:59:28.932Z,101267.63
2022-08-26T11:02:07.103Z,101268.13
2022-08-26T11:04:53.250Z,101266.47
2022-08-26T11:07:44.022Z,101261.91
2022-08-26T11:11:04.512Z,101265.72
2022-08-26T11:14:01.190Z,101269.06
2022-08-26T11:16:43.531Z,101270.34
2022-08-26T11:20:00.738Z,101259.72
2022-08-26T11:22:32.723Z,101250.34
2022-08-26T11:25:09.457Z,101246.72
2022-08-26T11:28:04.436Z,101252.28
2022-08-26T11:30:57.021Z,101241.88
2022-08-26T11:33:57.929Z,101244.63
2022-08-26T11:36:54.358Z,101244.97
2022-08-26T11:39:31.863Z,101238.78
2022-08-26T11:42:23.379Z,101226.19
2022-08-26T11:44:50.879Z,101230.53
2022-08-26T11:47:28.834Z,101235.56
2022-08-26T11:50:17.602Z,101226.78
2022-08-26T11:53:04.331Z,101224.84
2022-08-26T11:55:41.887Z,101224.69
2022-08-26T11:58:14.947Z,101231.75
2022-08-26T12:00:54.432Z,101229.94
2022-08-26T12:03:30.580Z,101220.31
2022-08-26T12:05:59.522Z,101214.81
2022-08-26T12:08:32.885Z,101219.41
2022-08-26T12:11:06.944Z,101227.13
2022-08-26T12:13:39.000Z,101222.72
2022-08-26T12:16:07.634Z,101221.31
2022-08-26T12:18:38.661Z,101213.22
2022-08-26T12:21:19.042Z,101215.03
2022-08-26T12:23:49.943Z,101212.50
2022-08-26T12:26:26.204Z,101218.41
2022-08-26T12:29:00.966Z,101208.50
2022-08-26T12:31:35.514Z,101201.69
2022-08-26T12:34:06.059Z,101195.31
2022-08-26T12:37:01.030Z,101203.66
2022-08-26T12:39:33.239Z,101179.16
2022-08-26T12:42:04.152Z,101176.16
2022-08-26T12:44:54.159Z,101176.88
2022-08-26T12:47:35.117Z,101176.47
2022-08-26T12:50:18.757Z,101177.78
2022-08-26T12:53:01.557Z,101180.72
2022-08-26T12:55:45.478Z,101176.53
2022-08-26T12:58:28.225Z,101158.38
2022-08-26T13:01:18.596Z,101163.09
2022-08-26T13:03:46.975Z,101167.19
2022-08-26T13:06:29.691Z,101183.50
2022-08-26T13:09:00.454Z,101190.94
2022-08-26T13:11:31.874Z,101192.09
2022-08-26T13:14:02.394Z,101188.06
2022-08-26T13:16:36.756Z,101188.06
2022-08-26T13:19:10.154Z,101185.84
2022-08-26T13:21:45.022Z,101184.53
2022-08-26T13:24:16.915Z,101180.06
2022-08-26T13:26:49.091Z,101174.72
2022-08-26T13:29:18.295Z,101186.66
2022-08-26T13:31:48.003Z,101194.97
2022-08-26T13:34:19.531Z,101220.00
2022-08-26T13:36:47.829Z,101231.34
2022-08-26T13:39:15.528Z,101236.28
2022-08-26T13:41:43.399Z,101240.22
2022-08-26T13:44:11.311Z,101238.91
2022-08-26T13:46:40.089Z,101236.72
2022-08-26T13:49:09.359Z,101241.03
2022-08-26T13:51:37.900Z,101251.56
2022-08-26T13:54:06.382Z,101263.72
2022-08-26T13:56:35.525Z,101266.56
2022-08-26T13:59:03.787Z,101277.22
2022-08-26T14:01:32.479Z,101278.09
2022-08-26T14:04:00.247Z,101286.50
2022-08-26T14:06:29.305Z,101281.06
2022-08-26T14:08:56.925Z,101274.03
2022-08-26T14:11:25.080Z,101269.91
2022-08-26T14:13:52.674Z,101266.59
2022-08-26T14:16:26.205Z,101264.66
2022-08-26T14:18:54.092Z,101268.19
2022-08-26T14:21:22.057Z,101262.13
2022-08-26T14:23:50.826Z,101246.59
2022-08-26T14:26:28.352Z,101241.31
2022-08-26T14:28:57.700Z,101239.38
2022-08-26T14:31:27.032Z,101249.34
2022-08-26T14:33:57.643Z,101256.56
2022-08-26T14:36:34.085Z,101263.28
2022-08-26T14:39:06.528Z,101258.53
2022-08-26T14:41:39.357Z,101240.97
2022-08-26T14:44:11.703Z,101245.16
2022-08-26T14:46:45.825Z,101251.25
2022-08-26T14:49:14.678Z,101262.19
2022-08-26T14:51:42.222Z,101262.81
2022-08-26T14:54:13.402Z,101251.19
2022-08-26T14:56:47.185Z,101263.78
2022-08-26T14:59:18.885Z,101272.00
2022-08-26T15:01:46.809Z,101277.78
2022-08-26T15:04:14.833Z,101276.22
2022-08-26T15:06:42.511Z,101267.81
2022-08-26T15:09:11.593Z,101259.16
2022-08-26T15:11:39.339Z,101258.66
2022-08-26T15:14:07.395Z,101264.66
2022-08-26T15:16:35.523Z,101275.00
2022-08-26T15:19:06.685Z,101281.84
2022-08-26T15:21:36.363Z,101279.19
2022-08-26T15:24:05.290Z,101284.09
2022-08-26T15:26:34.834Z,101277.94
2022-08-26T15:29:05.059Z,101265.25
2022-08-26T15:31:34.340Z,101263.09
2022-08-26T15:34:06.140Z,101252.50
2022-08-26T15:36:37.223Z,101259.34
2022-08-26T15:39:07.290Z,101255.06
2022-08-26T15:41:37.179Z,101254.84
2022-08-26T15:44:06.737Z,101253.53
2022-08-26T15:46:35.624Z,101248.66
2022-08-26T15:49:05.180Z,101240.53
2022-08-26T15:51:45.323Z,101246.97
2022-08-26T15:54:14.433Z,101239.94
2022-08-26T15:56:43.728Z,101239.94
2022-08-26T15:59:11.895Z,101250.25
2022-08-26T16:01:39.820Z,101255.19
2022-08-26T16:04:07.592Z,101244.06
2022-08-26T16:06:38.388Z,101246.03
2022-08-26T16:09:07.584Z,101251.25
2022-08-26T16:11:38.905Z,101247.19
2022-08-26T16:14:08.387Z,101249.41
2022-08-26T16:16:39.346Z,101253.19
2022-08-26T16:19:07.826Z,101255.41
2022-08-26T16:21:36.007Z,101251.56
2022-08-26T16:24:05.583Z,101246.72
2022-08-26T16:26:37.178Z,101243.47
2022-08-26T16:29:09.902Z,101229.38
2022-08-26T16:31:38.416Z,101252.22
2022-08-26T16:34:07.048Z,101255.50
2022-08-26T16:36:35.950Z,101260.66
2022-08-26T16:39:05.491Z,101272.94
2022-08-26T16:41:33.761Z,101271.31
2022-08-26T16:44:01.132Z,101274.03
2022-08-26T16:46:30.276Z,101284.31
2022-08-26T16:48:59.259Z,101278.28
2022-08-26T16:51:28.176Z,101276.63
2022-08-26T16:53:59.205Z,101282.03
2022-08-26T16:56:33.576Z,101285.78
2022-08-26T16:59:04.170Z,101284.03
2022-08-26T17:01:33.032Z,101291.63
2022-08-26T17:04:00.605Z,101291.56
2022-08-26T17:06:28.114Z,101300.25
2022-08-26T17:08:55.574Z,101302.66
2022-08-26T17:11:23.125Z,101308.91
2022-08-26T17:13:50.584Z,101320.34
2022-08-26T17:16:18.018Z,101326.59
2022-08-26T17:18:47.358Z,101328.03
2022-08-26T17:21:15.265Z,101328.13
2022-08-26T17:23:43.792Z,101331.41
2022-08-26T17:26:12.748Z,101335.22
2022-08-26T17:28:40.875Z,101337.16
2022-08-26T17:31:10.070Z,101332.56
2022-08-26T17:33:38.067Z,101334.78
2022-08-26T17:36:10.154Z,101346.28
2022-08-26T17:38:38.800Z,101343.31
2022-08-26T17:41:08.591Z,101350.09
2022-08-26T17:43:36.472Z,101346.34
2022-08-26T17:46:08.067Z,101350.69
2022-08-26T17:48:36.719Z,101356.72
2022-08-26T17:51:09.595Z,101354.03
2022-08-26T17:53:37.331Z,101352.44
2022-08-26T17:56:08.152Z,101353.81
2022-08-26T17:58:36.714Z,101364.94
2022-08-26T18:01:06.112Z,101357.44
2022-08-26T18:03:33.874Z,101354.22
2022-08-26T18:06:02.087Z,101356.94
2022-08-26T18:08:30.801Z,101363.22
2022-08-26T18:10:59.021Z,101362.69
2022-08-26T18:13:26.382Z,101358.91
2022-08-26T18:15:53.877Z,101360.81
2022-08-26T18:18:21.329Z,101351.59
2022-08-26T18:20:51.805Z,101346.22
2022-08-26T18:23:21.470Z,101348.38
2022-08-26T18:25:50.442Z,101354.38
2022-08-26T18:28:17.972Z,101352.75
2022-08-26T18:30:45.891Z,101353.28
2022-08-26T18:33:14.873Z,101362.00
2022-08-26T18:35:44.433Z,101358.19
2022-08-26T18:38:13.923Z,101358.78
2022-08-26T18:40:45.104Z,101356.31
2022-08-26T18:43:13.798Z,101369.63
2022-08-26T18:45:41.271Z,101362.06
2022-08-26T18:48:09.039Z,101366.13
2022-08-26T18:50:39.783Z,101374.00
2022-08-26T18:53:07.570Z,101375.38
2022-08-26T18:55:34.971Z,101379.44
2022-08-26T18:58:02.412Z,101382.66
2022-08-26T19:00:31.594Z,101388.88
2022-08-26T19:02:59.000Z,101390.25
2022-08-26T19:05:28.205Z,101393.22
2022-08-26T19:07:56.559Z,101390.78
2022-08-26T19:10:24.829Z,101385.13
2022-08-26T19:12:53.182Z,101381.59
2022-08-26T19:15:21.930Z,101380.25
2022-08-26T19:17:50.665Z,101377.00
2022-08-26T19:20:18.285Z,101375.66
2022-08-26T19:22:45.980Z,101372.41
2022-08-26T19:25:14.091Z,101371.06
2022-08-26T19:27:41.521Z,101373.47
2022-08-26T19:30:10.374Z,101380.00
2022-08-26T19:32:38.283Z,101374.88
2022-08-26T19:35:09.037Z,101376.22
2022-08-26T19:37:36.413Z,101360.00
2022-08-26T19:40:05.015Z,101354.56
2022-08-26T19:42:32.440Z,101345.94
2022-08-26T19:45:24.548Z,101347.53
2022-08-26T19:47:53.542Z,101352.41
2022-08-26T19:50:23.120Z,101357.56
2022-08-26T19:52:50.526Z,101356.22
2022-08-26T19:55:20.707Z,101360.00
2022-08-26T19:57:48.550Z,101368.09
2022-08-26T20:00:20.520Z,101365.94
2022-08-26T20:02:48.767Z,101367.28
2022-08-26T20:05:20.395Z,101353.22
2022-08-26T20:07:50.474Z,101352.41
2022-08-26T20:10:21.673Z,101358.34
2022-08-26T20:12:51.905Z,101358.91
2022-08-26T20:15:22.154Z,101369.16
2022-08-26T20:17:50.014Z,101367.03
2022-08-26T20:20:36.101Z,101362.13
2022-08-26T20:23:05.241Z,101353.19
2022-08-26T20:25:33.378Z,101363.22
2022-08-26T20:28:01.442Z,101361.03
2022-08-26T20:30:29.007Z,101369.41
2022-08-26T20:32:57.079Z,101373.47
2022-08-26T20:35:24.541Z,101375.63
2022-08-26T20:37:51.917Z,101376.44
2022-08-26T20:40:22.195Z,101368.63
2022-08-26T20:42:49.651Z,101369.41
2022-08-26T20:45:17.101Z,101379.16
2022-08-26T20:47:44.560Z,101385.91
2022-08-26T20:50:11.920Z,101396.72
2022-08-26T20:52:39.352Z,101399.41
2022-08-26T20:55:07.914Z,101391.28
2022-08-26T20:57:37.416Z,101392.66
2022-08-26T21:00:06.651Z,101409.13
2022-08-26T21:02:34.661Z,101401.00
2022-08-26T21:05:02.106Z,101400.19
2022-08-26T21:07:30.344Z,101403.19
2022-08-26T21:09:58.130Z,101403.69
2022-08-26T21:12:27.091Z,101403.16
2022-08-26T21:14:55.995Z,101408.03
2022-08-26T21:17:23.433Z,101397.75
2022-08-26T21:19:51.203Z,101406.94
2022-08-26T21:22:18.940Z,101401.53
2022-08-26T21:24:46.863Z,101398.28
2022-08-26T21:27:14.506Z,101410.16
2022-08-26T21:29:48.683Z,101408.00
2022-08-26T21:32:20.956Z,101409.31
2022-08-26T21:34:48.386Z,101414.72
2022-08-26T21:37:16.980Z,101411.78
2022-08-26T21:39:44.720Z,101411.78
2022-08-26T21:42:12.112Z,101421.47
2022-08-26T21:44:39.489Z,101421.47
2022-08-26T21:47:07.200Z,101425.81
2022-08-26T21:49:36.073Z,101425.81
2022-08-26T21:52:04.719Z,101418.53
2022-08-26T21:54:32.469Z,101422.31
2022-08-26T21:56:59.935Z,101422.03
2022-08-26T21:59:27.388Z,101420.41
2022-08-26T22:01:54.923Z,101417.69
2022-08-26T22:04:22.450Z,101421.22
2022-08-26T22:06:54.352Z,101423.34
2022-08-26T22:09:26.595Z,101420.63
2022-08-26T22:11:56.856Z,101417.63
2022-08-26T22:14:30.436Z,101411.69
2022-08-26T22:16:59.335Z,101416.00
2022-08-26T22:19:27.020Z,101415.19
2022-08-26T22:21:56.241Z,101407.38
2022-08-26T22:24:27.161Z,101411.13
2022-08-26T22:26:55.597Z,101408.44
2022-08-26T22:29:25.106Z,101416.53
2022-08-26T22:31:53.333Z,101415.97
2022-08-26T22:34:23.140Z,101417.03
2022-08-26T22:36:50.836Z,101417.59
2022-08-26T22:39:22.883Z,101421.34
2022-08-26T22:41:51.146Z,101422.44
2022-08-26T22:44:22.207Z,101420.00
2022-08-26T22:46:54.297Z,101429.44
2022-08-26T22:49:22.048Z,101426.19
2022-08-26T22:51:51.001Z,101419.16
2022-08-26T22:54:20.243Z,101425.38
2022-08-26T22:56:47.970Z,101431.31
2022-08-26T22:59:16.278Z,101436.47
2022-08-26T23:01:46.578Z,101432.44
2022-08-26T23:04:15.192Z,101426.75
2022-08-26T23:06:47.591Z,101426.50
2022-08-26T23:09:18.354Z,101429.19
2022-08-26T23:11:48.832Z,101429.47
2022-08-26T23:14:18.284Z,101430.53
2022-08-26T23:16:45.899Z,101429.97
2022-08-26T23:19:16.414Z,101430.50
2022-08-26T23:21:44.045Z,101426.72
2022-08-26T23:24:12.341Z,101420.22
2022-08-26T23:26:42.818Z,101414.28
2022-08-26T23:29:15.607Z,101419.91
2022-08-26T23:31:43.723Z,101414.28
2022-08-26T23:34:30.449Z,101407.78
2022-08-26T23:36:59.009Z,101403.47
2022-08-26T23:39:27.708Z,101413.19
2022-08-26T23:41:55.152Z,101416.97
2022-08-26T23:44:25.923Z,101406.16
2022-08-26T23:46:53.797Z,101404.53
2022-08-26T23:49:21.223Z,101398.59
2022-08-26T23:52:07.133Z,101401.81
2022-08-26T23:54:34.916Z,101407.19
2022-08-26T23:57:02.353Z,101401.56
2022-08-26T23:59:31.355Z,101405.63
